CheckWX is a tool to help pilots better visualize weather data.  It is not intended as a substitute for an official pre-flight weather briefing.

08:12:55 UTC

KGFK TAF
Grand Forks International Airport
Grand Forks, North Dakota, USA
KGFK 280520Z 2806/2906 VRB03KT P6SM OVC040 FM280900 VRB03KT P6SM OVC015 FM281800 18006KT P6SM BKN045

Feb-28@
06:00 UTC

Feb-28 @ 06:00 UTC

Feb-28@
09:00 UTC

Feb-28 @ 09:00 UTC

KGFK 280520Z 2806/2906 VRB03KT P6SM OVC040
Wind
  • Variable at 3 KTS
Cloud Levels
  • Overcast at 4,000' AGL

Feb-28@
09:00 UTC

Feb-28 @ 09:00 UTC

Feb-28@
18:00 UTC

Feb-28 @ 18:00 UTC

FM280900 VRB03KT P6SM OVC015

From

From Standard forecast or significant change

Wind
  • Variable at 3 KTS
Cloud Levels
  • Overcast at 1,500' AGL

Feb-28@
18:00 UTC

Feb-28 @ 18:00 UTC

Feb-29@
06:00 UTC

Feb-29 @ 06:00 UTC

FM281800 18006KT P6SM BKN045

From

From Standard forecast or significant change

Wind
  • 180° at 6 KTS
Cloud Levels
  • Broken at 4,500' AGL